createdAt,value
2022-11-10T00:01:10.630Z,97009.66
2022-11-10T00:03:38.742Z,97005.31
2022-11-10T00:06:07.295Z,97001.94
2022-11-10T00:08:34.110Z,97006.06
2022-11-10T00:11:06.402Z,97012.97
2022-11-10T00:13:35.286Z,97013.72
2022-11-10T00:16:23.119Z,97007.72
2022-11-10T00:18:50.106Z,97016.44
2022-11-10T00:21:17.875Z,97016.50
2022-11-10T00:23:47.364Z,97012.97
2022-11-10T00:26:17.802Z,97018.78
2022-11-10T00:28:44.912Z,97025.69
2022-11-10T00:31:12.007Z,97039.38
2022-11-10T00:33:40.063Z,97036.06
2022-11-10T00:36:06.951Z,97039.59
2022-11-10T00:38:33.359Z,97037.03
2022-11-10T00:41:00.770Z,97042.22
2022-11-10T00:43:29.249Z,97035.34
2022-11-10T00:45:56.182Z,97041.38
2022-11-10T00:48:22.978Z,97036.22
2022-11-10T00:50:49.407Z,97050.69
2022-11-10T00:53:16.054Z,97050.66
2022-11-10T00:55:42.629Z,97048.97
2022-11-10T00:58:09.171Z,97066.84
2022-11-10T01:00:35.649Z,97066.03
2022-11-10T01:03:02.531Z,97064.25
2022-11-10T01:05:36.363Z,97067.63
2022-11-10T01:08:02.711Z,97073.59
2022-11-10T01:10:29.066Z,97077.22
2022-11-10T01:12:55.550Z,97075.53
2022-11-10T01:15:27.214Z,97075.41
2022-11-10T01:17:55.677Z,97077.22
2022-11-10T01:20:22.827Z,97081.28
2022-11-10T01:22:49.217Z,97079.50
2022-11-10T01:25:15.730Z,97084.63
2022-11-10T01:27:42.055Z,97079.50
2022-11-10T01:30:08.714Z,97094.72
2022-11-10T01:32:35.051Z,97090.41
2022-11-10T01:35:01.448Z,97093.88
2022-11-10T01:37:27.830Z,97098.94
2022-11-10T01:39:54.395Z,97098.81
2022-11-10T01:42:37.758Z,97102.22
2022-11-10T01:45:22.378Z,97105.72
2022-11-10T01:48:01.243Z,97092.00
2022-11-10T01:50:32.882Z,97099.75
2022-11-10T01:53:03.326Z,97103.16
2022-11-10T01:55:31.046Z,97088.56
2022-11-10T01:57:57.743Z,97104.81
2022-11-10T02:00:24.491Z,97098.03
2022-11-10T02:02:57.064Z,97107.50
2022-11-10T02:05:25.284Z,97112.75
2022-11-10T02:07:51.785Z,97117.00
2022-11-10T02:10:20.339Z,97119.56
2022-11-10T02:12:48.458Z,97121.97
2022-11-10T02:15:17.740Z,97120.28
2022-11-10T02:17:46.578Z,97126.22
2022-11-10T02:20:16.269Z,97127.16
2022-11-10T02:22:42.716Z,97129.44
2022-11-10T02:25:09.335Z,97132.09
2022-11-10T02:27:35.742Z,97133.69
2022-11-10T02:30:03.179Z,97142.13
2022-11-10T02:32:29.565Z,97141.19
2022-11-10T02:34:55.904Z,97140.41
2022-11-10T02:37:22.369Z,97143.16
2022-11-10T02:39:48.744Z,97143.16
2022-11-10T02:42:15.060Z,97140.59
2022-11-10T02:44:42.770Z,97142.25
2022-11-10T02:47:09.559Z,97141.41
2022-11-10T02:49:35.908Z,97146.56
2022-11-10T02:52:02.239Z,97141.41
2022-11-10T02:54:28.580Z,97147.50
2022-11-10T02:56:54.903Z,97151.78
2022-11-10T02:59:21.284Z,97151.63
2022-11-10T03:01:47.592Z,97154.00
2022-11-10T03:04:14.103Z,97166.72
2022-11-10T03:06:40.476Z,97165.78
2022-11-10T03:09:06.909Z,97172.69
2022-11-10T03:11:33.244Z,97179.56
2022-11-10T03:14:01.891Z,97181.22
2022-11-10T03:16:29.081Z,97185.44
2022-11-10T03:18:55.458Z,97188.91
2022-11-10T03:21:21.846Z,97191.41
2022-11-10T03:23:48.276Z,97189.59
2022-11-10T03:26:14.617Z,97198.16
2022-11-10T03:28:40.959Z,97205.25
2022-11-10T03:31:07.297Z,97206.31
2022-11-10T03:33:33.628Z,97209.72
2022-11-10T03:36:00.120Z,97202.72
2022-11-10T03:38:26.463Z,97202.59
2022-11-10T03:43:39.120Z,97218.81
2022-11-10T03:46:05.597Z,97216.34
2022-11-10T03:48:32.058Z,97223.88
2022-11-10T03:50:58.405Z,97227.31
2022-11-10T03:53:25.097Z,97232.38
2022-11-10T03:55:51.565Z,97232.38
2022-11-10T03:58:17.931Z,97241.88
2022-11-10T04:00:44.262Z,97243.69
2022-11-10T04:03:10.693Z,97254.16
2022-11-10T04:05:55.814Z,97259.66
2022-11-10T04:08:40.619Z,97259.88
2022-11-10T04:11:06.956Z,97251.47
2022-11-10T04:13:51.745Z,97262.72
2022-11-10T04:16:19.347Z,97263.78
2022-11-10T04:18:45.666Z,97270.59
2022-11-10T04:21:12.232Z,97274.00
2022-11-10T04:23:38.603Z,97274.16
2022-11-10T04:26:29.461Z,97280.03
2022-11-10T04:29:06.740Z,97273.16
2022-11-10T04:31:37.267Z,97278.16
2022-11-10T04:34:05.179Z,97283.97
2022-11-10T04:36:33.726Z,97287.41
2022-11-10T04:39:00.252Z,97286.66
2022-11-10T04:41:28.000Z,97294.44
2022-11-10T04:43:54.491Z,97296.94
2022-11-10T04:46:25.594Z,97303.56
2022-11-10T04:48:51.970Z,97305.91
2022-11-10T04:51:19.935Z,97311.34
2022-11-10T04:53:46.418Z,97318.53
2022-11-10T04:56:17.607Z,97322.34
2022-11-10T04:58:44.137Z,97325.63
2022-11-10T05:01:12.980Z,97332.25
2022-11-10T05:03:39.579Z,97327.09
2022-11-10T05:06:06.154Z,97332.25
2022-11-10T05:08:32.861Z,97333.94
2022-11-10T05:10:59.645Z,97336.44
2022-11-10T05:13:25.979Z,97337.34
2022-11-10T05:15:53.294Z,97334.78
2022-11-10T05:18:20.323Z,97335.47
2022-11-10T05:20:46.684Z,97344.03
2022-11-10T05:23:31.554Z,97342.28
2022-11-10T05:25:57.938Z,97351.84
2022-11-10T05:28:24.327Z,97350.06
2022-11-10T05:30:50.662Z,97362.00
2022-11-10T05:33:17.025Z,97362.88
2022-11-10T05:35:44.207Z,97366.13
2022-11-10T05:38:10.688Z,97365.16
2022-11-10T05:40:37.088Z,97365.97
2022-11-10T05:43:03.464Z,97370.75
2022-11-10T05:45:29.922Z,97374.88
2022-11-10T05:47:56.646Z,97375.31
2022-11-10T05:50:23.602Z,97395.94
2022-11-10T05:52:52.391Z,97403.41
2022-11-10T05:55:22.190Z,97409.81
2022-11-10T05:57:50.274Z,97418.47
2022-11-10T06:00:21.770Z,97420.88
2022-11-10T06:03:18.550Z,97416.06
2022-11-10T06:05:46.646Z,97420.09
2022-11-10T06:08:13.248Z,97425.78
2022-11-10T06:10:40.046Z,97430.69
2022-11-10T06:13:07.626Z,97434.97
2022-11-10T06:15:34.110Z,97448.50
2022-11-10T06:18:01.810Z,97448.69
2022-11-10T06:20:29.372Z,97456.63
2022-11-10T06:23:11.178Z,97456.00
2022-11-10T06:25:38.863Z,97462.84
2022-11-10T06:28:07.323Z,97469.44
2022-11-10T06:30:36.020Z,97481.88
2022-11-10T06:33:02.658Z,97486.28
2022-11-10T06:35:29.936Z,97489.81
2022-11-10T06:38:00.034Z,97504.53
2022-11-10T06:40:26.583Z,97505.47
2022-11-10T06:42:53.019Z,97515.78
2022-11-10T06:45:19.456Z,97533.88
2022-11-10T06:47:45.892Z,97536.41
2022-11-10T06:50:12.239Z,97537.91
2022-11-10T06:52:38.612Z,97536.41
2022-11-10T06:55:05.721Z,97549.06
2022-11-10T06:57:39.493Z,97558.28
2022-11-10T07:00:06.594Z,97563.38
2022-11-10T07:02:33.035Z,97555.94
2022-11-10T07:04:59.461Z,97545.59
2022-11-10T07:07:25.810Z,97548.84
2022-11-10T07:09:52.187Z,97544.31
2022-11-10T07:12:19.596Z,97550.25
2022-11-10T07:14:46.957Z,97549.53
2022-11-10T07:17:14.078Z,97558.38
2022-11-10T07:19:40.454Z,97560.00
2022-11-10T07:22:10.985Z,97553.63
2022-11-10T07:24:37.713Z,97559.81
2022-11-10T07:27:04.352Z,97557.38
2022-11-10T07:29:30.712Z,97565.44
2022-11-10T07:31:57.237Z,97571.59
2022-11-10T07:34:23.589Z,97581.38
2022-11-10T07:36:50.026Z,97575.53
2022-11-10T07:39:16.501Z,97576.44
2022-11-10T07:41:42.905Z,97589.31
2022-11-10T07:44:09.294Z,97591.00
2022-11-10T07:46:36.636Z,97596.22
2022-11-10T07:49:03.148Z,97609.13
2022-11-10T07:51:30.689Z,97609.13
2022-11-10T07:53:58.094Z,97610.88
2022-11-10T07:56:27.146Z,97611.66
2022-11-10T07:58:53.480Z,97615.13
2022-11-10T08:01:19.965Z,97616.00
2022-11-10T08:03:46.366Z,97624.63
2022-11-10T08:06:12.780Z,97627.22
2022-11-10T08:08:40.185Z,97632.34
2022-11-10T08:11:06.674Z,97644.38
2022-11-10T08:13:33.065Z,97649.59
2022-11-10T08:15:59.552Z,97640.94
2022-11-10T08:18:29.574Z,97636.63
2022-11-10T08:21:03.387Z,97649.34
2022-11-10T08:23:29.995Z,97652.94
2022-11-10T08:26:01.079Z,97652.13
2022-11-10T08:28:28.024Z,97657.16
2022-11-10T08:30:54.656Z,97660.34
2022-11-10T08:33:21.927Z,97659.38
2022-11-10T08:35:50.891Z,97666.09
2022-11-10T08:38:20.706Z,97662.13
2022-11-10T08:40:47.215Z,97673.06
2022-11-10T08:43:14.735Z,97684.63
2022-11-10T08:45:43.048Z,97676.31
2022-11-10T08:48:15.056Z,97683.16
2022-11-10T08:50:42.540Z,97679.56
2022-11-10T08:53:14.499Z,97673.22
2022-11-10T08:55:41.872Z,97684.84
2022-11-10T08:58:12.546Z,97712.38
2022-11-10T09:00:38.971Z,97717.44
2022-11-10T09:03:18.592Z,97718.56
2022-11-10T09:05:46.658Z,97718.31
2022-11-10T09:08:13.298Z,97726.59
2022-11-10T09:10:45.317Z,97728.13
2022-11-10T09:13:13.802Z,97728.50
2022-11-10T09:15:41.528Z,97720.56
2022-11-10T09:18:09.033Z,97730.22
2022-11-10T09:20:37.110Z,97733.66
2022-11-10T09:23:08.107Z,97728.66
2022-11-10T09:25:34.467Z,97735.38
2022-11-10T09:28:01.195Z,97743.72
2022-11-10T09:30:28.369Z,97744.09
2022-11-10T09:32:56.143Z,97750.28
2022-11-10T09:35:23.114Z,97760.69
2022-11-10T09:37:49.532Z,97763.81
2022-11-10T09:40:37.790Z,97751.63
2022-11-10T09:43:10.879Z,97754.81
2022-11-10T09:45:42.619Z,97753.72
2022-11-10T09:48:16.349Z,97764.06
2022-11-10T09:50:50.923Z,97767.91
2022-11-10T09:53:25.027Z,97766.31
2022-11-10T09:55:58.328Z,97762.13
2022-11-10T09:58:31.830Z,97777.03
2022-11-10T10:01:18.968Z,97781.38
2022-11-10T10:03:58.259Z,97777.06
2022-11-10T10:06:24.858Z,97776.75
2022-11-10T10:09:11.823Z,97769.28
2022-11-10T10:11:38.237Z,97776.59
2022-11-10T10:14:13.637Z,97775.66
2022-11-10T10:16:48.769Z,97783.97
2022-11-10T10:19:24.250Z,97789.34
2022-11-10T10:22:17.198Z,97789.63
2022-11-10T10:24:43.819Z,97802.91
2022-11-10T10:27:18.674Z,97803.06
2022-11-10T10:29:49.264Z,97803.53
2022-11-10T10:32:17.283Z,97810.00
2022-11-10T10:34:45.308Z,97812.78
2022-11-10T10:37:41.030Z,97811.25
2022-11-10T10:40:13.799Z,97810.25
2022-11-10T10:42:40.830Z,97810.38
2022-11-10T10:45:23.879Z,97815.81
2022-11-10T10:47:55.956Z,97822.56
2022-11-10T10:50:27.776Z,97808.69
2022-11-10T10:53:17.777Z,97796.38
2022-11-10T10:56:00.594Z,97794.44
2022-11-10T10:58:33.332Z,97787.09
2022-11-10T11:01:19.883Z,97792.28
2022-11-10T11:03:51.630Z,97784.97
2022-11-10T11:06:27.056Z,97786.34
2022-11-10T11:09:15.780Z,97771.06
2022-11-10T11:11:44.937Z,97758.31
2022-11-10T11:14:21.602Z,97766.63
2022-11-10T11:16:54.070Z,97765.53
2022-11-10T11:19:27.260Z,97777.69
2022-11-10T11:22:02.726Z,97781.78
2022-11-10T11:24:56.694Z,97772.03
2022-11-10T11:27:56.503Z,97773.19
2022-11-10T11:30:26.186Z,97776.78
2022-11-10T11:33:04.694Z,97769.38
2022-11-10T11:35:34.177Z,97772.09
2022-11-10T11:38:15.450Z,97779.63
2022-11-10T11:41:08.690Z,97775.06
2022-11-10T11:43:55.331Z,97790.22
2022-11-10T11:46:31.027Z,97805.94
2022-11-10T11:49:18.510Z,97813.06
2022-11-10T11:51:58.959Z,97816.31
2022-11-10T11:54:33.587Z,97820.06
2022-11-10T11:57:29.501Z,97822.91
2022-11-10T12:00:28.277Z,97818.69
2022-11-10T12:03:13.413Z,97818.78
2022-11-10T12:05:43.869Z,97796.63
2022-11-10T12:08:39.629Z,97793.78
2022-11-10T12:11:23.015Z,97790.22
2022-11-10T12:14:01.873Z,97787.50
2022-11-10T12:16:33.978Z,97789.31
2022-11-10T12:19:24.690Z,97784.69
2022-11-10T12:22:12.797Z,97785.75
2022-11-10T12:25:12.738Z,97777.28
2022-11-10T12:27:47.167Z,97770.53
2022-11-10T12:30:16.674Z,97759.19
2022-11-10T12:32:56.430Z,97769.44
2022-11-10T12:35:27.462Z,97766.13
2022-11-10T12:38:01.082Z,97785.91
2022-11-10T12:40:41.816Z,97790.38
2022-11-10T12:43:58.460Z,97791.63
2022-11-10T12:46:24.934Z,97804.34
2022-11-10T12:49:07.968Z,97804.84
2022-11-10T12:51:49.433Z,97800.59
2022-11-10T12:54:19.162Z,97808.38
2022-11-10T12:57:08.403Z,97807.75
2022-11-10T12:59:39.345Z,97811.78
2022-11-10T13:02:36.872Z,97814.88
2022-11-10T13:05:15.606Z,97817.56
2022-11-10T13:07:44.021Z,97833.91
2022-11-10T13:10:28.563Z,97833.88
2022-11-10T13:13:05.030Z,97832.13
2022-11-10T13:15:45.464Z,97823.50
2022-11-10T13:18:22.802Z,97819.16
2022-11-10T13:20:54.341Z,97819.97
2022-11-10T13:23:21.808Z,97818.09
2022-11-10T13:25:54.476Z,97825.00
2022-11-10T13:28:48.668Z,97811.91
2022-11-10T13:31:27.368Z,97792.78
2022-11-10T13:34:19.166Z,97781.06
2022-11-10T13:36:48.135Z,97777.53
2022-11-10T13:39:24.276Z,97789.66
2022-11-10T13:42:10.920Z,97788.31
2022-11-10T13:44:47.617Z,97800.25
2022-11-10T13:47:51.827Z,97796.09
2022-11-10T13:50:33.502Z,97815.53
2022-11-10T13:53:18.924Z,97812.13
2022-11-10T13:56:18.169Z,97807.34
2022-11-10T13:58:44.980Z,97817.41
2022-11-10T14:01:17.327Z,97808.28
2022-11-10T14:03:47.539Z,97812.91
2022-11-10T14:06:40.137Z,97830.94
2022-11-10T14:09:18.504Z,97834.84
2022-11-10T14:11:53.288Z,97843.97
2022-11-10T14:14:33.474Z,97855.09
2022-11-10T14:17:00.807Z,97847.25
2022-11-10T14:19:38.912Z,97839.63
2022-11-10T14:22:29.776Z,97851.16
2022-11-10T14:25:25.591Z,97848.41
2022-11-10T14:27:57.637Z,97849.16
2022-11-10T14:30:25.789Z,97848.97
2022-11-10T14:33:06.269Z,97849.66
2022-11-10T14:35:44.492Z,97846.19
2022-11-10T14:38:20.699Z,97845.47
2022-11-10T14:40:48.866Z,97854.44
2022-11-10T14:43:32.089Z,97856.75
2022-11-10T14:45:59.172Z,97857.63
2022-11-10T14:48:28.715Z,97858.94
2022-11-10T14:50:55.265Z,97864.44
2022-11-10T14:53:31.249Z,97872.63
2022-11-10T14:55:59.184Z,97873.53
2022-11-10T14:58:25.747Z,97880.50
2022-11-10T15:00:53.521Z,97880.44
2022-11-10T15:03:35.609Z,97887.94
2022-11-10T15:06:03.898Z,97902.25
2022-11-10T15:08:31.051Z,97893.22
2022-11-10T15:10:57.928Z,97907.38
2022-11-10T15:13:27.246Z,97906.06
2022-11-10T15:16:26.198Z,97913.31
2022-11-10T15:18:55.365Z,97924.91
2022-11-10T15:21:28.710Z,97939.09
2022-11-10T15:23:59.371Z,97938.84
2022-11-10T15:26:28.361Z,97944.47
2022-11-10T15:28:55.238Z,97951.84
2022-11-10T15:31:24.885Z,97952.41
2022-11-10T15:33:55.560Z,97953.75
2022-11-10T15:36:25.023Z,97958.59
2022-11-10T15:39:15.455Z,97954.91
2022-11-10T15:41:56.816Z,97951.97
2022-11-10T15:44:26.236Z,97953.31
2022-11-10T15:46:55.006Z,97964.25
2022-11-10T15:49:29.148Z,97957.16
2022-11-10T15:52:02.542Z,97966.44
2022-11-10T15:54:35.376Z,97963.59
2022-11-10T15:57:01.768Z,97964.28
2022-11-10T15:59:28.199Z,97976.81
2022-11-10T16:01:56.712Z,97978.28
2022-11-10T16:04:26.914Z,97978.91
2022-11-10T16:06:53.484Z,97981.28
2022-11-10T16:09:20.038Z,97977.63
2022-11-10T16:11:46.499Z,97985.09
2022-11-10T16:14:15.408Z,97992.47
2022-11-10T16:16:42.605Z,97994.78
2022-11-10T16:19:12.552Z,97982.69
2022-11-10T16:21:39.125Z,97988.56
2022-11-10T16:24:05.660Z,97982.44
2022-11-10T16:26:34.306Z,97978.09
2022-11-10T16:29:01.049Z,97979.03
2022-11-10T16:31:27.695Z,97977.50
2022-11-10T16:33:54.107Z,97981.56
2022-11-10T16:36:26.471Z,97977.84
2022-11-10T16:38:54.254Z,97987.22
2022-11-10T16:41:21.793Z,97986.47
2022-11-10T16:43:48.407Z,97991.41
2022-11-10T16:46:25.583Z,97998.06
2022-11-10T16:48:58.075Z,97997.16
2022-11-10T16:51:49.531Z,98005.81
2022-11-10T16:54:16.351Z,98008.63
2022-11-10T16:56:42.773Z,98015.47
2022-11-10T16:59:13.356Z,98018.72
2022-11-10T17:01:43.307Z,98024.47
2022-11-10T17:04:12.513Z,98016.53
2022-11-10T17:06:39.374Z,98029.69
2022-11-10T17:09:17.430Z,98028.78
2022-11-10T17:11:43.906Z,98029.97
2022-11-10T17:14:12.096Z,98034.75
2022-11-10T17:16:43.292Z,98035.13
2022-11-10T17:19:20.177Z,98039.75
2022-11-10T17:21:48.471Z,98037.69
2022-11-10T17:24:15.407Z,98037.97
2022-11-10T17:26:43.089Z,98037.91
2022-11-10T17:29:21.177Z,98036.34
2022-11-10T17:31:50.106Z,98045.38
2022-11-10T17:34:16.527Z,98049.50
2022-11-10T17:36:43.066Z,98044.25
2022-11-10T17:39:14.518Z,98051.91
2022-11-10T17:41:41.027Z,98048.41
2022-11-10T17:44:14.911Z,98045.50
2022-11-10T17:46:42.023Z,98048.41
2022-11-10T17:49:08.852Z,98048.16
2022-11-10T17:51:36.647Z,98056.44
2022-11-10T17:54:04.428Z,98053.13
2022-11-10T17:56:31.890Z,98060.78
2022-11-10T17:58:58.350Z,98068.25
2022-11-10T18:01:24.810Z,98063.66
2022-11-10T18:03:51.219Z,98071.06
2022-11-10T18:06:19.440Z,98067.34
2022-11-10T18:08:46.637Z,98073.13
2022-11-10T18:11:16.058Z,98069.53
2022-11-10T18:13:43.515Z,98074.41
2022-11-10T18:16:11.850Z,98072.47
2022-11-10T18:18:38.737Z,98064.38
2022-11-10T18:21:05.949Z,98072.97
2022-11-10T18:23:32.578Z,98074.94
2022-11-10T18:26:06.976Z,98068.38
2022-11-10T18:28:34.637Z,98060.28
2022-11-10T18:31:12.944Z,98055.66
2022-11-10T18:33:39.802Z,98063.19
2022-11-10T18:36:06.740Z,98056.13
2022-11-10T18:38:33.243Z,98055.75
2022-11-10T18:41:23.667Z,98053.00
2022-11-10T18:43:50.112Z,98069.75
2022-11-10T18:46:16.845Z,98068.16
2022-11-10T18:48:45.313Z,98066.03
2022-11-10T18:51:12.906Z,98070.06
2022-11-10T18:53:39.288Z,98073.28
2022-11-10T18:56:05.951Z,98071.31
2022-11-10T18:58:32.332Z,98080.06
2022-11-10T19:01:06.614Z,98081.28
2022-11-10T19:03:34.916Z,98081.97
2022-11-10T19:06:01.787Z,98076.59
2022-11-10T19:08:28.618Z,98080.72
2022-11-10T19:10:56.610Z,98084.41
2022-11-10T19:13:24.030Z,98099.91
2022-11-10T19:15:50.697Z,98090.63
2022-11-10T19:18:17.342Z,98088.38
2022-11-10T19:20:43.690Z,98102.56
2022-11-10T19:23:10.095Z,98106.00
2022-11-10T19:25:36.535Z,98115.25
2022-11-10T19:28:04.664Z,98115.34
2022-11-10T19:30:31.257Z,98111.47
2022-11-10T19:32:57.633Z,98122.22
2022-11-10T19:35:24.079Z,98122.22
2022-11-10T19:37:53.715Z,98116.16
2022-11-10T19:40:21.028Z,98120.13
2022-11-10T19:42:47.608Z,98127.63
2022-11-10T19:45:15.381Z,98133.06
2022-11-10T19:47:42.435Z,98143.09
2022-11-10T19:50:09.009Z,98152.13
2022-11-10T19:52:35.386Z,98148.59
2022-11-10T19:55:01.815Z,98148.88
2022-11-10T19:57:29.177Z,98151.88
2022-11-10T19:59:55.841Z,98156.84
2022-11-10T20:02:22.294Z,98166.44
2022-11-10T20:05:07.059Z,98171.81
2022-11-10T20:07:51.874Z,98169.72
2022-11-10T20:10:18.391Z,98170.69
2022-11-10T20:12:44.766Z,98168.41
2022-11-10T20:15:11.642Z,98177.09
2022-11-10T20:17:37.977Z,98171.28
2022-11-10T20:20:05.813Z,98164.63
2022-11-10T20:22:32.310Z,98180.13
2022-11-10T20:24:59.043Z,98185.91
2022-11-10T20:27:25.713Z,98168.09
2022-11-10T20:29:52.064Z,98193.69
2022-11-10T20:32:18.422Z,98196.63
2022-11-10T20:34:44.885Z,98194.09
2022-11-10T20:37:12.354Z,98196.63
2022-11-10T20:39:38.733Z,98193.13
2022-11-10T20:42:05.050Z,98186.63
2022-11-10T20:44:32.541Z,98177.59
2022-11-10T20:46:59.132Z,98188.38
2022-11-10T20:49:25.569Z,98183.94
2022-11-10T20:51:51.902Z,98183.75
2022-11-10T20:54:18.298Z,98181.31
2022-11-10T20:56:44.661Z,98191.31
2022-11-10T20:59:11.106Z,98194.25
2022-11-10T21:01:37.932Z,98196.06
2022-11-10T21:04:06.041Z,98191.22
2022-11-10T21:06:32.605Z,98187.50
2022-11-10T21:08:59.082Z,98184.03
2022-11-10T21:11:44.087Z,98189.03
2022-11-10T21:14:10.593Z,98189.66
2022-11-10T21:16:39.114Z,98186.38
2022-11-10T21:19:05.606Z,98177.97
2022-11-10T21:21:35.503Z,98177.34
2022-11-10T21:24:05.604Z,98184.19
2022-11-10T21:26:34.133Z,98187.56
2022-11-10T21:29:01.581Z,98188.94
2022-11-10T21:31:28.546Z,98183.44
2022-11-10T21:33:55.884Z,98183.00
2022-11-10T21:36:22.523Z,98194.88
2022-11-10T21:38:49.242Z,98192.53
2022-11-10T21:41:15.949Z,98191.78
2022-11-10T21:43:42.365Z,98184.88
2022-11-10T21:46:08.731Z,98186.81
2022-11-10T21:48:36.711Z,98186.94
2022-11-10T21:51:06.474Z,98198.19
2022-11-10T21:53:34.603Z,98197.94
2022-11-10T21:56:06.492Z,98202.84
2022-11-10T21:58:34.029Z,98210.56
2022-11-10T22:01:12.229Z,98200.38
2022-11-10T22:03:40.796Z,98209.22
2022-11-10T22:06:15.780Z,98210.91
2022-11-10T22:08:44.659Z,98204.94
2022-11-10T22:11:39.057Z,98204.16
2022-11-10T22:14:32.846Z,98188.59
2022-11-10T22:17:18.197Z,98200.56
2022-11-10T22:19:44.812Z,98207.50
2022-11-10T22:22:14.145Z,98208.09
2022-11-10T22:24:40.689Z,98212.44
2022-11-10T22:27:08.118Z,98211.31
2022-11-10T22:29:34.510Z,98204.47
2022-11-10T22:32:02.085Z,98197.53
2022-11-10T22:34:29.041Z,98199.03
2022-11-10T22:36:55.605Z,98208.50
2022-11-10T22:39:22.008Z,98216.88
2022-11-10T22:42:06.985Z,98219.28
2022-11-10T22:44:33.396Z,98216.00
2022-11-10T22:46:59.852Z,98219.47
2022-11-10T22:49:26.197Z,98215.13
2022-11-10T22:51:55.193Z,98210.69
2022-11-10T22:54:23.068Z,98212.38
2022-11-10T22:56:50.925Z,98214.19
2022-11-10T22:59:18.398Z,98212.72
2022-11-10T23:01:45.130Z,98210.09
2022-11-10T23:04:12.036Z,98205.75
2022-11-10T23:06:38.917Z,98208.91
2022-11-10T23:09:06.601Z,98203.28
2022-11-10T23:11:33.228Z,98196.25
2022-11-10T23:13:59.892Z,98205.88
2022-11-10T23:16:32.966Z,98210.03
2022-11-10T23:18:59.607Z,98210.97
2022-11-10T23:21:30.498Z,98211.78
2022-11-10T23:23:57.514Z,98202.72
2022-11-10T23:26:34.601Z,98219.72
2022-11-10T23:29:01.028Z,98223.81
2022-11-10T23:31:28.448Z,98215.31
2022-11-10T23:33:57.596Z,98214.44
2022-11-10T23:36:26.124Z,98221.41
2022-11-10T23:38:52.545Z,98221.47
2022-11-10T23:41:21.102Z,98218.56
2022-11-10T23:43:47.694Z,98229.19
2022-11-10T23:46:15.456Z,98219.22
2022-11-10T23:48:42.066Z,98216.50
2022-11-10T23:51:11.411Z,98223.88
2022-11-10T23:53:38.140Z,98226.75
2022-11-10T23:56:07.417Z,98227.84
2022-11-10T23:58:33.878Z,98226.09
